Time;durP1;ratioP1;P1;durP2;ratioP2;P2;SDS_P1;SDS_P2;PMS_P1;PMS_P2;Temp;Humidity;BMP_temperature;BMP_pressure;BME280_temperature;BME280_humidity;BME280_pressure;Samples;Min_cycle;Max_cycle;Signal;HPM_P1;HPM_P2
2023/07/26 04:23:20;;;;;;;5.60;3.67;;;12.50;99.90;;;;;;5023867;28;20040;-83
2023/07/26 04:25:51;;;;;;;4.97;3.85;;;12.50;99.90;;;;;;5007862;28;20029;-83
2023/07/26 04:28:24;;;;;;;9.30;4.03;;;12.50;99.90;;;;;;5042253;28;20072;-82
2023/07/26 04:34:32;;;;;;;5.78;3.35;;;12.50;99.90;;;;;;5022692;28;20057;-84
2023/07/26 04:37:10;;;;;;;5.85;3.75;;;12.50;99.90;;;;;;4982101;28;20065;-84
2023/07/26 04:39:35;;;;;;;10.45;4.70;;;12.50;99.90;;;;;;5018457;28;20120;-84
2023/07/26 04:42:01;;;;;;;5.75;4.00;;;12.60;99.90;;;;;;5016895;28;20115;-84
2023/07/26 04:44:26;;;;;;;3.72;3.42;;;12.60;99.90;;;;;;5034408;28;20033;-83
2023/07/26 04:46:55;;;;;;;4.18;3.53;;;12.60;99.90;;;;;;5041357;28;20249;-81
2023/07/26 04:49:21;;;;;;;4.70;3.50;;;12.60;99.90;;;;;;5046684;28;20041;-80
2023/07/26 04:51:46;;;;;;;6.38;3.63;;;12.60;99.90;;;;;;5042607;28;20068;-81
2023/07/26 04:54:12;;;;;;;6.03;3.55;;;12.60;99.90;;;;;;5039633;28;20073;-83
2023/07/26 04:56:38;;;;;;;4.18;3.10;;;12.70;99.90;;;;;;5033961;28;20040;-83
2023/07/26 04:59:04;;;;;;;7.00;3.70;;;12.60;99.90;;;;;;5035400;28;20051;-83
2023/07/26 05:01:29;;;;;;;5.43;3.13;;;12.70;99.90;;;;;;5027826;28;20041;-83
2023/07/26 05:03:55;;;;;;;6.30;3.92;;;12.80;99.90;;;;;;5030544;28;20042;-83
2023/07/26 05:06:21;;;;;;;7.30;3.80;;;12.80;99.90;;;;;;5034290;28;20071;-82
2023/07/26 05:08:47;;;;;;;4.38;3.47;;;12.80;99.90;;;;;;5038448;28;20167;-84
2023/07/26 05:11:14;;;;;;;5.50;3.92;;;12.80;99.90;;;;;;5032313;28;20061;-83
2023/07/26 05:13:39;;;;;;;6.00;3.58;;;12.80;99.90;;;;;;5029519;28;20056;-82
2023/07/26 05:16:05;;;;;;;7.78;3.90;;;12.90;99.90;;;;;;5019792;28;20038;-83
2023/07/26 05:18:31;;;;;;;7.70;3.90;;;12.90;99.90;;;;;;5022202;28;20060;-83
2023/07/26 05:20:56;;;;;;;5.65;3.00;;;12.90;99.90;;;;;;5009253;28;20059;-83
2023/07/26 05:23:22;;;;;;;5.63;3.70;;;12.90;99.90;;;;;;5029135;28;20034;-83
2023/07/26 05:25:48;;;;;;;6.20;4.35;;;12.90;99.90;;;;;;5032563;28;20045;-82
2023/07/26 05:28:14;;;;;;;6.00;3.45;;;13.00;99.90;;;;;;5022904;28;20069;-83
2023/07/26 05:30:41;;;;;;;9.00;4.45;;;13.00;99.90;;;;;;5006665;28;20037;-82
2023/07/26 05:33:08;;;;;;;5.32;4.25;;;13.10;99.90;;;;;;5037100;28;20073;-83
2023/07/26 05:35:34;;;;;;;7.53;4.63;;;13.20;99.90;;;;;;5014421;28;20034;-84
2023/07/26 05:38:01;;;;;;;6.43;4.25;;;13.30;99.90;;;;;;5027208;28;20038;-82
2023/07/26 05:40:27;;;;;;;5.00;3.63;;;13.50;99.90;;;;;;5009602;28;20037;-84
2023/07/26 05:42:53;;;;;;;4.88;3.30;;;13.80;99.90;;;;;;5004693;28;20362;-84
2023/07/26 05:45:21;;;;;;;5.57;3.13;;;14.90;99.90;;;;;;5013151;28;20415;-83
2023/07/26 05:47:48;;;;;;;4.40;2.50;;;15.60;99.90;;;;;;5026998;28;20042;-84
2023/07/26 05:50:29;;;;;;;3.30;2.15;;;15.50;99.90;;;;;;5027451;28;20045;-83
2023/07/26 05:52:55;;;;;;;5.03;2.90;;;15.40;99.90;;;;;;5026832;28;20448;-83
2023/07/26 05:55:21;;;;;;;4.90;3.17;;;15.30;99.90;;;;;;5028715;28;20037;-84
2023/07/26 05:57:47;;;;;;;4.03;2.30;;;15.20;99.90;;;;;;5028927;28;20445;-84
2023/07/26 06:00:13;;;;;;;4.40;2.78;;;15.10;99.90;;;;;;5027199;28;20068;-83
2023/07/26 06:03:02;;;;;;;7.28;2.67;;;15.00;99.90;;;;;;5026882;28;20492;-84
2023/07/26 06:05:35;;;;;;;4.28;2.92;;;14.80;99.90;;;;;;5019889;28;20085;-83
2023/07/26 06:12:37;;;;;;;5.72;3.40;;;14.60;99.90;;;;;;4996231;28;20709;-81
2023/07/26 06:15:03;;;;;;;5.05;2.85;;;14.50;99.90;;;;;;4971103;28;20104;-84
2023/07/26 06:17:29;;;;;;;6.45;3.03;;;14.50;99.90;;;;;;5000084;28;20042;-82
2023/07/26 06:20:15;;;;;;;5.47;2.60;;;14.50;99.90;;;;;;4989645;28;20053;-85
2023/07/26 06:22:53;;;;;;;14.10;3.35;;;14.40;99.90;;;;;;4965709;28;20050;-82
2023/07/26 06:26:24;;;;;;;7.32;3.15;;;14.40;99.90;;;;;;4985071;28;20049;-85
2023/07/26 06:28:50;;;;;;;3.38;2.60;;;14.40;99.90;;;;;;4983354;28;20111;-84
2023/07/26 06:32:03;;;;;;;6.63;3.72;;;14.40;99.90;;;;;;5007644;28;20776;-86
2023/07/26 06:34:57;;;;;;;4.97;3.05;;;14.40;99.90;;;;;;5009937;28;20072;-86
2023/07/26 06:38:05;;;;;;;4.40;3.05;;;14.40;99.90;;;;;;5024790;28;20512;-84
2023/07/26 06:40:53;;;;;;;4.43;2.70;;;14.40;99.90;;;;;;5010185;28;20692;-84
2023/07/26 06:43:23;;;;;;;6.95;2.88;;;14.40;99.90;;;;;;5024304;28;20053;-84
2023/07/26 06:45:50;;;;;;;5.18;3.05;;;14.40;99.90;;;;;;5006902;28;20439;-87
2023/07/26 06:48:16;;;;;;;3.65;2.75;;;14.50;99.90;;;;;;5008569;28;20094;-85
2023/07/26 06:50:59;;;;;;;5.28;3.08;;;14.40;99.90;;;;;;5025563;28;20037;-84
2023/07/26 06:53:28;;;;;;;8.63;3.40;;;14.40;99.90;;;;;;5032360;28;20053;-84
2023/07/26 06:56:03;;;;;;;4.97;3.13;;;14.40;99.90;;;;;;5008816;28;20033;-84
2023/07/26 06:58:34;;;;;;;4.30;3.40;;;14.40;99.90;;;;;;5022399;28;20863;-85
2023/07/26 07:01:17;;;;;;;7.63;3.85;;;14.30;99.90;;;;;;5010678;28;20049;-84
2023/07/26 07:04:03;;;;;;;4.03;3.22;;;14.20;99.90;;;;;;5024523;28;20075;-85
2023/07/26 07:10:13;;;;;;;7.68;3.72;;;14.20;99.90;;;;;;5019017;28;20052;-85
2023/07/26 07:12:39;;;;;;;7.60;4.53;;;14.10;99.90;;;;;;5021281;28;20095;-82
2023/07/26 07:15:05;;;;;;;7.68;4.25;;;14.10;99.90;;;;;;5024190;28;20144;-83
2023/07/26 07:17:31;;;;;;;9.13;4.57;;;14.10;99.90;;;;;;5003560;28;20176;-83
2023/07/26 07:20:00;;;;;;;11.73;5.35;;;14.00;99.90;;;;;;5005193;28;20045;-82
2023/07/26 07:22:27;;;;;;;13.18;5.32;;;14.00;99.90;;;;;;5002565;28;20052;-82
2023/07/26 07:24:53;;;;;;;7.63;4.88;;;14.00;99.90;;;;;;4988946;28;20081;-83
2023/07/26 07:27:24;;;;;;;9.93;5.78;;;13.90;99.90;;;;;;5019400;28;20037;-83
2023/07/26 07:29:50;;;;;;;11.98;4.50;;;13.90;99.90;;;;;;5021852;28;20484;-82
2023/07/26 07:32:16;;;;;;;6.85;3.35;;;13.90;99.90;;;;;;5004961;28;20052;-84
2023/07/26 07:34:43;;;;;;;4.30;2.25;;;13.80;99.90;;;;;;5002637;28;20047;-82
2023/07/26 07:37:08;;;;;;;2.58;1.45;;;13.70;99.90;;;;;;5018725;28;20114;-82
2023/07/26 07:39:34;;;;;;;2.30;1.30;;;13.60;99.90;;;;;;5021548;28;20534;-81
2023/07/26 07:42:00;;;;;;;4.00;1.80;;;13.50;99.90;;;;;;5024446;28;20116;-81
2023/07/26 07:44:28;;;;;;;4.65;1.70;;;13.50;99.90;;;;;;5023732;28;20044;-82
2023/07/26 07:46:53;;;;;;;5.10;1.80;;;13.50;99.90;;;;;;5024938;28;20044;-82
2023/07/26 07:49:19;;;;;;;2.50;1.15;;;13.40;99.90;;;;;;5023782;28;20030;-82
2023/07/26 07:51:45;;;;;;;3.03;1.52;;;13.40;99.90;;;;;;5024793;28;20116;-81
2023/07/26 07:54:14;;;;;;;5.55;1.80;;;13.40;99.90;;;;;;5022112;28;20044;-82
2023/07/26 07:56:41;;;;;;;3.50;1.50;;;13.40;99.90;;;;;;5003379;28;20138;-82
2023/07/26 07:59:07;;;;;;;2.60;1.20;;;13.40;99.90;;;;;;5026357;28;20488;-82
2023/07/26 08:01:33;;;;;;;2.53;1.02;;;13.40;99.90;;;;;;5006149;28;20491;-82
2023/07/26 08:03:59;;;;;;;1.73;1.20;;;13.50;99.90;;;;;;5022301;28;20068;-82
2023/07/26 08:06:28;;;;;;;4.00;1.30;;;13.50;99.90;;;;;;5025195;28;20037;-81
2023/07/26 08:08:54;;;;;;;3.95;2.03;;;13.60;99.90;;;;;;5020009;28;20112;-82
2023/07/26 08:11:20;;;;;;;2.88;2.58;;;13.70;99.90;;;;;;5023602;28;20124;-83
2023/07/26 08:13:51;;;;;;;3.63;2.58;;;13.90;99.90;;;;;;5025026;28;20065;-83
2023/07/26 08:16:16;;;;;;;5.63;2.60;;;14.00;99.90;;;;;;5026208;28;20091;-82
2023/07/26 08:18:42;;;;;;;3.35;2.83;;;14.10;99.90;;;;;;5026325;28;20045;-82
2023/07/26 08:21:11;;;;;;;3.63;2.80;;;14.20;99.90;;;;;;5024663;28;20045;-82
2023/07/26 08:23:37;;;;;;;3.13;2.50;;;13.90;99.90;;;;;;5023347;28;20034;-83
2023/07/26 08:26:04;;;;;;;2.50;2.28;;;14.50;99.90;;;;;;5005473;28;20033;-84
2023/07/26 08:28:30;;;;;;;3.47;3.05;;;14.60;99.90;;;;;;5022342;28;20052;-82
2023/07/26 08:30:56;;;;;;;4.80;3.42;;;14.60;99.90;;;;;;5005673;28;20500;-82
2023/07/26 08:33:22;;;;;;;4.38;2.80;;;14.70;99.90;;;;;;5023078;28;20057;-82
2023/07/26 08:35:48;;;;;;;7.03;4.35;;;14.80;99.90;;;;;;5023260;28;20040;-83
2023/07/26 08:38:13;;;;;;;4.35;2.70;;;15.20;99.90;;;;;;5021022;28;20420;-83
2023/07/26 08:40:48;;;;;;;2.78;1.45;;;15.70;99.90;;;;;;5024449;28;20048;-82
2023/07/26 08:43:17;;;;;;;7.13;1.98;;;16.10;99.90;;;;;;5018094;28;20038;-82
2023/07/26 08:45:43;;;;;;;4.32;3.00;;;16.50;99.90;;;;;;5021232;28;20053;-82
2023/07/26 08:48:09;;;;;;;4.13;2.63;;;16.70;99.90;;;;;;5016764;28;20050;-82
2023/07/26 08:50:38;;;;;;;7.70;3.20;;;17.00;99.90;;;;;;5024365;28;20037;-83
2023/07/26 08:53:05;;;;;;;2.70;1.52;;;17.30;99.90;;;;;;5024043;28;21971;-81
2023/07/26 08:55:32;;;;;;;2.20;1.13;;;17.40;99.90;;;;;;5022376;28;20041;-82
2023/07/26 08:57:59;;;;;;;1.45;1.10;;;17.50;99.90;;;;;;5017683;28;20113;-82
2023/07/26 09:00:26;;;;;;;2.17;0.90;;;17.60;99.90;;;;;;5004766;28;20075;-81
2023/07/26 09:02:58;;;;;;;1.40;1.17;;;17.70;99.90;;;;;;5041038;28;20064;-82
2023/07/26 09:05:44;;;;;;;7.65;2.13;;;17.70;99.90;;;;;;5018353;28;20049;-84
2023/07/26 09:08:34;;;;;;;5.25;2.50;;;17.80;99.90;;;;;;5037213;28;20120;-82
2023/07/26 09:14:34;;;;;;;2.90;2.20;;;18.30;99.90;;;;;;4945733;29;20066;-82
2023/07/26 09:17:04;;;;;;;2.35;1.48;;;18.70;99.90;;;;;;4932379;28;20078;-83
2023/07/26 09:19:39;;;;;;;1.92;1.40;;;18.80;99.90;;;;;;5008321;28;20045;-83
2023/07/26 09:22:08;;;;;;;1.38;1.20;;;18.90;99.90;;;;;;5019635;28;20399;-82
2023/07/26 09:25:03;;;;;;;1.52;1.20;;;18.80;99.90;;;;;;5027452;28;20041;-84
2023/07/26 09:27:30;;;;;;;1.88;1.30;;;18.70;99.90;;;;;;5018166;28;20563;-83
2023/07/26 09:30:05;;;;;;;3.33;1.30;;;18.50;99.90;;;;;;5029719;28;20041;-83
2023/07/26 09:32:31;;;;;;;1.92;1.73;;;18.40;99.90;;;;;;5012224;28;20033;-83
2023/07/26 09:35:25;;;;;;;1.90;1.33;;;18.30;99.90;;;;;;5007835;28;20068;-82
2023/07/26 09:37:51;;;;;;;2.00;1.17;;;18.10;99.90;;;;;;5001664;28;20515;-83
2023/07/26 09:40:30;;;;;;;3.63;1.52;;;17.90;99.90;;;;;;5011815;28;20045;-83
2023/07/26 09:43:30;;;;;;;1.77;0.95;;;17.80;99.90;;;;;;5027790;28;20056;-82
2023/07/26 09:46:03;;;;;;;2.53;1.30;;;17.40;99.90;;;;;;5008002;28;20047;-83
2023/07/26 09:48:36;;;;;;;1.50;1.25;;;17.20;99.90;;;;;;5021716;28;20045;-83
2023/07/26 09:51:10;;;;;;;1.65;1.48;;;17.00;99.90;;;;;;5010273;28;20400;-84
2023/07/26 09:53:39;;;;;;;2.08;1.60;;;16.90;99.90;;;;;;4994700;28;20446;-83
2023/07/26 09:56:08;;;;;;;4.28;1.98;;;16.90;99.90;;;;;;5025630;28;20499;-84
2023/07/26 09:58:36;;;;;;;3.25;2.13;;;16.90;99.90;;;;;;4991889;28;20095;-83
2023/07/26 10:01:02;;;;;;;2.88;2.35;;;16.90;99.90;;;;;;5008503;28;20041;-82
2023/07/26 10:03:30;;;;;;;5.22;2.72;;;17.10;99.90;;;;;;5026368;28;20400;-82
2023/07/26 10:05:56;;;;;;;3.22;2.30;;;17.20;99.90;;;;;;5027680;28;20049;-82
2023/07/26 10:08:23;;;;;;;2.28;1.67;;;17.40;99.90;;;;;;5025476;28;20049;-82
2023/07/26 10:10:50;;;;;;;2.72;1.52;;;17.70;99.90;;;;;;5026842;28;20048;-83
2023/07/26 10:13:19;;;;;;;3.20;1.38;;;18.00;99.90;;;;;;5026376;28;20424;-82
2023/07/26 10:15:47;;;;;;;2.03;1.30;;;18.30;99.90;;;;;;4996198;28;20072;-83
2023/07/26 10:18:19;;;;;;;2.35;1.50;;;18.50;99.90;;;;;;4993987;28;20381;-84
2023/07/26 10:20:47;;;;;;;1.92;1.33;;;18.70;99.90;;;;;;5009993;28;20056;-84
2023/07/26 10:23:21;;;;;;;2.83;1.67;;;18.70;99.90;;;;;;5028060;28;20041;-82
2023/07/26 10:25:50;;;;;;;2.23;1.60;;;18.90;99.90;;;;;;5014491;28;20048;-83
2023/07/26 10:31:14;;;;;;;3.80;1.80;;;19.00;99.90;;;;;;4989084;28;20516;-81
2023/07/26 10:34:36;;;;;;;2.25;1.63;;;19.20;99.90;;;;;;5028284;28;20045;-83
2023/07/26 10:37:44;;;;;;;1.98;1.55;;;19.30;99.90;;;;;;5006799;28;20045;-83
2023/07/26 10:44:02;;;;;;;2.85;1.80;;;19.50;99.90;;;;;;5027665;28;20087;-83
2023/07/26 10:46:28;;;;;;;2.38;1.10;;;19.70;99.90;;;;;;5026832;28;20495;-82
2023/07/26 10:48:54;;;;;;;1.88;1.65;;;19.70;99.90;;;;;;5023157;28;20072;-82
2023/07/26 10:51:32;;;;;;;2.25;1.98;;;19.60;99.90;;;;;;5012262;28;20038;-83
2023/07/26 10:53:59;;;;;;;4.40;2.03;;;19.40;99.90;;;;;;5024816;28;20992;-84
2023/07/26 10:56:32;;;;;;;3.95;1.67;;;19.00;99.90;;;;;;5006723;28;20091;-84
2023/07/26 10:59:30;;;;;;;1.33;1.02;;;18.70;99.90;;;;;;5024619;28;20482;-84
2023/07/26 11:02:27;;;;;;;1.20;0.77;;;18.30;99.90;;;;;;5017438;28;20163;-83
2023/07/26 11:05:29;;;;;;;2.08;0.50;;;17.80;99.90;;;;;;5021594;28;20052;-83
2023/07/26 11:07:59;;;;;;;1.02;0.55;;;17.20;99.90;;;;;;5016378;28;20050;-80
2023/07/26 11:10:36;;;;;;;2.75;0.50;;;16.90;99.90;;;;;;5026930;28;20142;-81
2023/07/26 11:13:32;;;;;;;2.03;0.60;;;16.70;99.90;;;;;;5035306;28;20499;-82
2023/07/26 11:16:04;;;;;;;1.48;0.63;;;16.60;99.90;;;;;;5023120;28;20061;-81
2023/07/26 11:18:40;;;;;;;0.77;0.43;;;16.80;99.90;;;;;;5031226;28;20034;-82
2023/07/26 11:21:06;;;;;;;1.15;0.32;;;16.90;99.90;;;;;;5027910;28;20044;-81
2023/07/26 11:23:31;;;;;;;0.75;0.20;;;17.30;99.90;;;;;;5012633;28;20045;-81
2023/07/26 11:25:59;;;;;;;0.43;0.20;;;17.30;99.90;;;;;;5030709;28;20052;-82
2023/07/26 11:28:30;;;;;;;0.60;0.52;;;17.60;99.90;;;;;;5010465;28;20041;-82
2023/07/26 11:30:58;;;;;;;1.13;0.40;;;17.90;99.90;;;;;;5021479;28;20050;-82
2023/07/26 11:33:40;;;;;;;1.70;0.50;;;18.20;99.90;;;;;;5027442;28;20057;-84
2023/07/26 11:36:19;;;;;;;1.35;0.68;;;18.50;99.90;;;;;;5030382;28;20041;-83
2023/07/26 11:38:48;;;;;;;3.85;0.68;;;18.70;99.90;;;;;;5006935;28;20121;-83
2023/07/26 11:41:21;;;;;;;1.95;0.60;;;18.70;99.90;;;;;;5024507;28;20041;-82
2023/07/26 11:44:01;;;;;;;2.03;1.15;;;18.80;99.90;;;;;;5009801;28;20041;-81
2023/07/26 11:46:28;;;;;;;2.72;1.02;;;18.90;99.90;;;;;;5012724;28;20052;-83
2023/07/26 11:48:54;;;;;;;3.13;1.10;;;19.10;99.90;;;;;;5022719;28;20041;-82
2023/07/26 11:51:20;;;;;;;2.35;1.10;;;19.20;99.90;;;;;;5025237;28;20045;-83
2023/07/26 11:53:47;;;;;;;1.45;0.90;;;19.40;99.90;;;;;;5029531;28;20048;-82
2023/07/26 11:56:13;;;;;;;8.93;0.73;;;19.50;99.90;;;;;;5022395;28;20064;-82
2023/07/26 11:58:41;;;;;;;1.95;0.85;;;19.60;99.90;;;;;;5007436;28;20893;-82
2023/07/26 12:01:07;;;;;;;1.08;0.65;;;19.70;99.90;;;;;;5025051;28;20052;-81
2023/07/26 12:03:34;;;;;;;1.55;0.75;;;19.90;99.90;;;;;;4994071;28;20037;-82
2023/07/26 12:06:02;;;;;;;4.28;1.00;;;20.00;99.90;;;;;;5024741;28;20057;-83
2023/07/26 12:08:47;;;;;;;2.90;0.90;;;20.00;99.90;;;;;;5010548;28;20391;-82
2023/07/26 12:11:17;;;;;;;4.03;1.23;;;19.90;99.90;;;;;;5024659;28;20033;-82
2023/07/26 12:13:45;;;;;;;1.55;0.60;;;19.90;99.90;;;;;;5008611;28;20038;-83
2023/07/26 12:16:11;;;;;;;4.63;0.90;;;19.80;99.90;;;;;;5011430;28;20456;-84
2023/07/26 12:18:49;;;;;;;1.98;0.80;;;19.90;99.90;;;;;;5022495;28;20083;-83
2023/07/26 12:21:17;;;;;;;3.42;0.73;;;20.10;99.90;;;;;;5028099;28;20080;-83
2023/07/26 12:24:06;;;;;;;0.90;0.50;;;19.90;99.90;;;;;;5028992;28;20052;-82
2023/07/26 12:26:34;;;;;;;0.90;0.60;;;19.90;99.90;;;;;;5011294;28;20100;-80
2023/07/26 12:29:02;;;;;;;3.63;1.10;;;19.90;99.90;;;;;;5006622;28;20045;-83
2023/07/26 12:31:32;;;;;;;2.70;0.85;;;20.00;99.90;;;;;;5027480;28;20041;-82
2023/07/26 12:34:06;;;;;;;2.00;1.25;;;20.10;99.90;;;;;;5026809;28;20037;-84
2023/07/26 12:36:40;;;;;;;3.45;1.58;;;20.20;99.90;;;;;;5010285;28;20037;-83
2023/07/26 12:39:10;;;;;;;2.95;1.73;;;20.20;99.90;;;;;;5025669;28;20045;-83
2023/07/26 12:41:37;;;;;;;3.20;1.60;;;20.30;99.90;;;;;;5022631;28;20044;-83
2023/07/26 12:44:06;;;;;;;4.18;1.13;;;20.20;99.90;;;;;;5010992;28;20068;-82
2023/07/26 12:46:33;;;;;;;3.83;1.10;;;20.30;99.90;;;;;;5008436;28;20045;-83
2023/07/26 12:48:59;;;;;;;2.83;1.25;;;20.20;99.90;;;;;;5026631;28;20095;-82
2023/07/26 12:51:26;;;;;;;3.13;1.27;;;20.20;99.90;;;;;;5031195;28;20037;-82
2023/07/26 12:53:53;;;;;;;2.33;1.13;;;20.10;99.90;;;;;;5026861;28;20029;-82
2023/07/26 12:56:22;;;;;;;2.35;1.00;;;20.20;99.90;;;;;;5011989;28;20045;-82
2023/07/26 12:58:59;;;;;;;4.97;1.48;;;20.20;99.90;;;;;;5008167;28;20045;-83
2023/07/26 13:01:25;;;;;;;2.40;1.55;;;20.20;99.90;;;;;;5024598;28;20557;-83
2023/07/26 13:03:51;;;;;;;3.25;1.55;;;20.00;99.90;;;;;;5026087;28;20041;-82
2023/07/26 13:06:17;;;;;;;2.30;1.17;;;19.80;99.90;;;;;;5029445;28;20041;-83
2023/07/26 13:08:44;;;;;;;5.78;1.20;;;19.50;99.90;;;;;;5025168;28;20042;-82
2023/07/26 13:11:10;;;;;;;3.17;1.60;;;19.30;99.90;;;;;;5026935;28;20041;-83
2023/07/26 13:13:35;;;;;;;3.20;1.73;;;19.10;99.90;;;;;;5026025;28;20053;-82
2023/07/26 13:16:01;;;;;;;2.15;1.40;;;19.00;99.90;;;;;;5029514;28;20042;-82
2023/07/26 13:18:27;;;;;;;3.33;1.45;;;19.00;99.90;;;;;;5020874;28;20390;-83
2023/07/26 13:20:53;;;;;;;2.50;1.60;;;19.00;99.90;;;;;;5022062;28;20395;-83
2023/07/26 13:23:19;;;;;;;3.38;1.40;;;19.30;99.90;;;;;;5012584;28;20060;-82
2023/07/26 13:25:46;;;;;;;4.90;1.55;;;19.40;99.90;;;;;;5032915;28;20045;-82
2023/07/26 13:28:12;;;;;;;4.47;1.60;;;19.60;99.90;;;;;;5027229;28;20403;-83
2023/07/26 13:30:38;;;;;;;5.65;1.83;;;19.50;99.90;;;;;;5003020;28;20045;-82
2023/07/26 13:33:03;;;;;;;2.83;1.42;;;19.30;99.90;;;;;;5026118;28;20029;-82
2023/07/26 13:35:29;;;;;;;6.53;2.08;;;19.10;99.90;;;;;;5026537;28;20551;-82
2023/07/26 13:37:55;;;;;;;9.85;2.53;;;18.80;99.90;;;;;;5023403;28;20045;-81
2023/07/26 13:40:21;;;;;;;3.92;1.52;;;18.60;99.90;;;;;;5026961;28;20038;-82
2023/07/26 13:42:47;;;;;;;2.67;1.42;;;18.40;99.90;;;;;;5024055;28;20050;-82
2023/07/26 13:45:13;;;;;;;2.38;1.40;;;18.10;99.90;;;;;;5010647;28;20624;-82
2023/07/26 13:48:33;;;;;;;;;;;;;;;;;;;;;
2023/07/26 13:52:18;;;;;;;;;;;;;;;;;;;;;
2023/07/26 13:55:27;;;;;;;2.38;1.15;;;17.50;99.90;;;;;;5022731;28;20703;-81
2023/07/26 14:01:31;;;;;;;;;;;18.30;99.90;;;;;;4996576;28;20145;-82
2023/07/26 14:07:15;;;;;;;;;;;;;;;;;;;;;
2023/07/26 14:10:05;;;;;;;4.25;1.48;;;19.20;99.90;;;;;;5026843;28;20060;-82
2023/07/26 14:12:31;;;;;;;5.18;2.42;;;19.60;99.90;;;;;;5022086;28;20053;-81
2023/07/26 14:16:00;;;;;;;;;;;;;;;;;;;;;
2023/07/26 14:19:22;;;;;;;4.57;1.77;;;20.10;99.90;;;;;;5020763;28;20077;-82
2023/07/26 14:24:33;;;;;;;4.70;1.52;;;20.30;99.90;;;;;;5031444;28;20055;-82
2023/07/26 14:27:56;;;;;;;4.15;1.60;;;20.50;99.90;;;;;;5015511;28;20045;-82
2023/07/26 14:33:48;;;;;;;;;;;;;;;;;;;;;
2023/07/26 14:36:49;;;;;;;3.83;1.55;;;20.80;99.90;;;;;;5007775;28;20046;-82
2023/07/26 14:39:31;;;;;;;2.97;1.27;;;20.60;99.90;;;;;;5021493;28;20037;-82
2023/07/26 14:42:22;;;;;;;3.10;1.30;;;20.30;99.90;;;;;;5027383;28;20433;-81
2023/07/26 14:48:39;;;;;;;5.97;1.45;;;20.30;99.90;;;;;;5013791;28;20476;-81
2023/07/26 15:00:06;;;;;;;4.15;1.50;;;19.90;99.90;;;;;;5046231;28;20106;-81
2023/07/26 15:02:32;;;;;;;4.03;1.50;;;20.20;99.90;;;;;;5016006;28;20041;-82
2023/07/26 15:04:58;;;;;;;2.22;1.27;;;20.20;99.90;;;;;;5027277;28;20064;-81
2023/07/26 15:11:26;;;;;;;;;;;;;;;;;;;;;
2023/07/26 15:15:15;;;;;;;5.10;1.98;;;19.90;99.90;;;;;;4894678;29;20732;-82
2023/07/26 15:17:52;;;;;;;3.47;1.65;;;20.00;99.90;;;;;;4801584;29;20048;-81
2023/07/26 15:20:23;;;;;;;3.97;1.42;;;19.90;99.90;;;;;;4875153;29;20527;-81
2023/07/26 15:22:52;;;;;;;4.70;2.20;;;20.10;99.90;;;;;;4993807;28;20523;-82
2023/07/26 15:25:19;;;;;;;7.07;1.90;;;19.80;99.90;;;;;;5043034;28;20090;-82
2023/07/26 15:27:49;;;;;;;3.13;1.90;;;19.80;99.90;;;;;;5014005;28;20091;-85
2023/07/26 15:30:14;;;;;;;3.30;1.98;;;19.80;99.90;;;;;;5014418;28;20049;-82
2023/07/26 15:32:42;;;;;;;2.97;1.48;;;19.80;99.90;;;;;;5034556;28;20496;-81
2023/07/26 15:35:13;;;;;;;3.92;1.70;;;19.90;99.90;;;;;;5050393;28;20025;-83
2023/07/26 15:37:43;;;;;;;4.93;1.80;;;20.00;99.90;;;;;;5032042;28;20480;-83
2023/07/26 15:40:10;;;;;;;4.63;1.80;;;20.20;99.90;;;;;;5040502;28;20049;-83
2023/07/26 15:42:57;;;;;;;2.45;1.17;;;20.30;99.90;;;;;;5019679;28;20040;-83
2023/07/26 15:45:24;;;;;;;2.95;1.33;;;20.30;99.90;;;;;;5021378;28;20124;-82
2023/07/26 15:47:51;;;;;;;4.25;1.70;;;20.20;99.90;;;;;;5035742;28;20141;-83
2023/07/26 15:50:16;;;;;;;3.75;1.50;;;20.40;99.90;;;;;;5020704;28;20443;-81
2023/07/26 15:52:42;;;;;;;3.65;1.25;;;20.20;99.90;;;;;;5036611;28;20036;-81
2023/07/26 15:55:08;;;;;;;1.90;1.45;;;20.30;99.90;;;;;;5046820;28;20033;-82
2023/07/26 15:57:33;;;;;;;3.67;1.70;;;20.30;99.90;;;;;;5033649;28;20707;-82
2023/07/26 16:00:01;;;;;;;2.53;1.20;;;20.30;99.90;;;;;;5021200;28;20052;-82
2023/07/26 16:02:27;;;;;;;3.97;1.70;;;20.20;99.90;;;;;;5006786;28;20041;-82
2023/07/26 16:04:53;;;;;;;3.15;1.40;;;20.20;99.90;;;;;;5033029;28;20048;-81
2023/07/26 16:07:19;;;;;;;2.78;1.50;;;20.10;99.90;;;;;;5042347;28;20037;-82
2023/07/26 16:09:52;;;;;;;5.88;1.73;;;20.00;99.90;;;;;;5038932;28;20029;-82
2023/07/26 16:12:17;;;;;;;4.22;1.27;;;20.10;99.90;;;;;;5020507;28;20034;-82
2023/07/26 16:15:34;;;;;;;4.95;1.73;;;20.10;99.90;;;;;;5036423;28;20044;-82
2023/07/26 16:18:29;;;;;;;3.25;1.30;;;20.10;99.90;;;;;;4926338;29;20123;-82
2023/07/26 16:21:19;;;;;;;5.25;1.70;;;20.30;99.90;;;;;;4935515;29;20055;-82
2023/07/26 16:23:44;;;;;;;4.88;1.63;;;20.00;99.90;;;;;;5017792;28;20069;-82
2023/07/26 16:26:10;;;;;;;3.58;1.58;;;20.30;99.90;;;;;;5032124;28;20392;-81
2023/07/26 16:28:35;;;;;;;3.78;1.60;;;19.90;99.90;;;;;;5010729;28;20037;-81
2023/07/26 16:31:01;;;;;;;3.55;1.20;;;19.90;99.90;;;;;;5026869;28;20801;-82
2023/07/26 16:33:27;;;;;;;3.88;1.60;;;19.90;99.90;;;;;;5046523;28;20036;-81
2023/07/26 16:55:00;;;;;;;2.83;1.25;;;19.60;99.90;;;;;;4780983;29;20055;-82
2023/07/26 17:01:57;;;;;;;4.95;1.95;;;19.70;99.90;;;;;;4853733;29;20060;-84
2023/07/26 17:05:13;;;;;;;4.18;1.80;;;19.70;99.90;;;;;;4853319;29;20040;-86
2023/07/26 17:08:35;;;;;;;5.40;1.77;;;19.60;99.90;;;;;;4835739;29;20133;-85
2023/07/26 17:22:18;;;;;;;5.68;1.90;;;19.30;99.90;;;;;;4958722;28;20544;-83
2023/07/26 17:24:46;;;;;;;5.45;1.58;;;19.20;99.90;;;;;;4971502;28;20045;-84
2023/07/26 17:27:13;;;;;;;4.35;2.00;;;19.10;99.90;;;;;;4993561;28;20186;-84
2023/07/26 17:29:40;;;;;;;3.53;1.73;;;19.00;99.90;;;;;;4993144;28;20042;-85
2023/07/26 17:32:26;;;;;;;6.13;1.98;;;19.00;99.90;;;;;;5001122;28;20066;-84
2023/07/26 17:35:10;;;;;;;3.70;1.80;;;18.90;99.90;;;;;;5020375;28;20053;-84
2023/07/26 17:38:05;;;;;;;1.73;1.42;;;18.80;99.90;;;;;;5016904;28;20037;-83
2023/07/26 17:41:14;;;;;;;8.10;2.22;;;18.90;99.90;;;;;;5040526;28;20087;-83
2023/07/26 17:43:48;;;;;;;3.80;1.77;;;19.10;99.90;;;;;;5022408;28;20041;-84
2023/07/26 17:46:19;;;;;;;6.53;2.67;;;18.90;99.90;;;;;;5047488;28;20084;-83
2023/07/26 17:48:44;;;;;;;4.40;2.00;;;18.80;99.90;;;;;;5031325;28;20461;-83
2023/07/26 17:51:12;;;;;;;8.07;2.08;;;18.80;99.90;;;;;;5031766;28;20408;-84
2023/07/26 17:53:47;;;;;;;3.03;2.00;;;18.80;99.90;;;;;;5038069;28;20053;-84
2023/07/26 18:00:50;;;;;;;3.10;1.63;;;18.70;99.90;;;;;;5050843;28;20040;-84
2023/07/26 18:03:55;;;;;;;4.25;1.27;;;18.50;99.90;;;;;;5006533;28;20035;-85
2023/07/26 18:06:20;;;;;;;4.50;1.98;;;18.40;99.90;;;;;;4989929;28;20042;-83
2023/07/26 18:08:46;;;;;;;4.60;1.40;;;18.30;99.90;;;;;;5025926;28;20033;-84
2023/07/26 18:11:12;;;;;;;4.30;2.40;;;18.30;99.90;;;;;;5017670;28;20037;-83
2023/07/26 18:13:40;;;;;;;4.90;1.83;;;18.20;99.90;;;;;;5023258;28;20515;-84
2023/07/26 18:16:14;;;;;;;4.85;1.80;;;18.20;99.90;;;;;;5052066;28;20594;-83
2023/07/26 18:18:52;;;;;;;4.88;1.73;;;18.10;99.90;;;;;;5010286;28;20037;-82
2023/07/26 18:22:00;;;;;;;;;;;;;;;;;;;;;
2023/07/26 18:24:53;;;;;;;3.22;1.58;;;18.00;99.90;;;;;;5019553;28;20116;-83
2023/07/26 18:27:21;;;;;;;4.40;1.73;;;17.90;99.90;;;;;;5048106;28;20063;-83
2023/07/26 18:29:58;;;;;;;5.32;2.22;;;18.00;99.90;;;;;;5039058;28;20072;-82
2023/07/26 18:42:51;;;;;;;;;;;17.70;99.90;;;;;;5027031;28;20046;-83
2023/07/26 18:45:26;;;;;;;4.65;1.98;;;17.70;99.90;;;;;;5004413;28;19918;-83
2023/07/26 18:47:55;;;;;;;3.40;1.63;;;17.60;99.90;;;;;;5012459;28;20103;-82
2023/07/26 18:51:04;;;;;;;2.42;1.48;;;17.50;99.90;;;;;;5013773;28;20117;-82
2023/07/26 18:57:49;;;;;;;4.82;1.83;;;17.30;99.90;;;;;;4843668;29;20087;-82
2023/07/26 19:00:38;;;;;;;2.25;1.65;;;17.20;99.90;;;;;;4844272;29;20799;-82
2023/07/26 19:03:03;;;;;;;6.53;1.75;;;17.10;99.90;;;;;;4920024;29;20060;-82
2023/07/26 19:05:29;;;;;;;4.38;1.70;;;17.00;99.90;;;;;;4977267;28;20114;-81
2023/07/26 19:07:55;;;;;;;3.42;1.90;;;16.90;99.90;;;;;;4991612;28;20521;-81
2023/07/26 19:10:21;;;;;;;3.65;1.48;;;16.80;99.90;;;;;;5029892;28;20683;-81
2023/07/26 19:12:46;;;;;;;4.07;2.30;;;16.70;99.90;;;;;;5007714;28;20142;-80
2023/07/26 19:15:12;;;;;;;6.60;2.30;;;16.70;99.90;;;;;;5009063;28;20037;-81
2023/07/26 19:17:37;;;;;;;4.70;2.22;;;16.60;99.90;;;;;;5015473;28;20144;-81
2023/07/26 19:20:04;;;;;;;2.97;1.80;;;16.50;99.90;;;;;;5006910;28;20056;-81
2023/07/26 19:22:29;;;;;;;2.08;1.35;;;16.50;99.90;;;;;;5016831;28;20049;-81
2023/07/26 19:24:58;;;;;;;4.47;1.73;;;16.70;99.90;;;;;;5002917;28;20658;-82
2023/07/26 19:27:24;;;;;;;5.40;1.85;;;16.30;99.90;;;;;;5002906;28;20611;-82
2023/07/26 19:32:52;;;;;;;5.13;1.98;;;16.20;99.90;;;;;;5002860;28;20050;-82
2023/07/26 19:35:18;;;;;;;3.50;2.45;;;16.00;99.90;;;;;;5026883;28;20109;-80
2023/07/26 19:37:43;;;;;;;6.90;2.22;;;16.00;99.90;;;;;;5006956;28;20045;-80